This is the latest recevied weather packets stored in our database for station/object E25RIV-1. If no packets are shown the sender has not sent any weather packets the latest 10 day(s).
| Time | Temp. | Humidity | Pressure | Rain* | Wind** | Luminosity | Snow |
|---|---|---|---|---|---|---|---|
| 1777876692 | 36.67° C | 50% | 993 hPa | - | - | 0 W/m² | - |
| 1777876068 | 37.78° C | 49% | 993 hPa | - | - | 0 W/m² | - |
| 1777875444 | 38.33° C | 48% | 992 hPa | - | - | 0 W/m² | - |
| 1777874820 | 38.33° C | 47% | 992 hPa | - | - | 0 W/m² | - |
| 1777874196 | 38.89° C | 48% | 992 hPa | - | - | 0 W/m² | - |
| 1777873572 | 38.89° C | 47% | 992 hPa | - | - | 0 W/m² | - |
| 1777872948 | 38.89° C | 46% | 991 hPa | - | - | 0 W/m² | - |
| 1777872324 | 39.44° C | 48% | 993 hPa | - | - | 0 W/m² | - |
| 1777871700 | 38.33° C | 51% | 995 hPa | - | - | 0 W/m² | - |
| 1777871076 | 37.22° C | 50% | 994 hPa | - | - | 0 W/m² | - |
| 1777870452 | 37.22° C | 52% | 995 hPa | - | - | 0 W/m² | - |
| 1777869828 | 37.22° C | 51% | 994 hPa | - | - | 0 W/m² | - |
| 1777869204 | 37.22° C | 52% | 995 hPa | - | - | 0 W/m² | - |
| 1777868580 | 36.67° C | 52% | 995 hPa | - | - | 0 W/m² | - |
| 1777867956 | 37.22° C | 51% | 995 hPa | - | - | 0 W/m² | - |
| 1777867332 | 36.67° C | 54% | 997 hPa | - | - | 0 W/m² | - |
| 1777866708 | 36.11° C | 55% | 997 hPa | - | - | 0 W/m² | - |
| 1777866084 | 36.67° C | 55% | 997 hPa | - | - | 0 W/m² | - |
| 1777865460 | 36.11° C | 57% | 998 hPa | - | - | 0 W/m² | - |
| 1777864836 | 36.67° C | 54% | 997 hPa | - | - | 0 W/m² | - |
| 1777864212 | 37.78° C | 52% | 995 hPa | - | - | 0 W/m² | - |
| 1777863588 | 37.22° C | 54% | 996 hPa | - | - | 0 W/m² | - |
| 1777862964 | 36.67° C | 60% | 999 hPa | - | - | 0 W/m² | - |
| 1777862340 | 35.56° C | 63% | 1000 hPa | - | - | 0 W/m² | - |
| 1777861716 | 35° C | 65% | 1001 hPa | - | - | 0 W/m² | - |
* Rain since midnight (hover to see other rain measurements)
** Current wind speed in m/s (hover to see current wind gust speed)